Time;durP1;ratioP1;P1;durP2;ratioP2;P2;SDS_P1;SDS_P2;PMS_P1;PMS_P2;Temp;Humidity;BMP_temperature;BMP_pressure;BME280_temperature;BME280_humidity;BME280_pressure;Samples;Min_cycle;Max_cycle;Signal;HPM_P1;HPM_P2
2021/12/30 00:01:23;;;;;;;2.40;2.20;;;19.70;37.00;;;23.28;24.43;100237.72;5112939;28;20055;-77
2021/12/30 00:03:50;;;;;;;2.05;1.85;;;19.70;37.00;;;23.34;24.20;100253.25;5077701;28;20051;-78
2021/12/30 00:06:18;;;;;;;2.30;1.98;;;19.70;37.00;;;23.28;24.30;100237.72;5077977;28;20454;-77
2021/12/30 00:08:45;;;;;;;1.85;1.75;;;19.70;37.00;;;23.34;24.31;100236.38;5093938;28;20511;-77
2021/12/30 00:11:11;;;;;;;1.95;1.77;;;19.70;37.00;;;23.37;24.49;100238.78;5081178;28;20051;-77
2021/12/30 00:13:39;;;;;;;2.00;1.80;;;19.70;37.00;;;23.33;24.37;100235.53;5081214;28;20071;-77
2021/12/30 00:16:05;;;;;;;2.13;1.92;;;19.70;37.00;;;23.34;24.23;100249.72;5098210;28;20134;-77
2021/12/30 00:18:32;;;;;;;1.98;1.85;;;19.70;37.00;;;23.29;24.13;100248.28;5098052;28;20059;-77
2021/12/30 00:20:57;;;;;;;2.10;1.75;;;19.60;37.00;;;23.30;24.46;100251.78;5096965;28;20056;-77
2021/12/30 00:23:23;;;;;;;2.15;1.95;;;19.60;37.00;;;23.33;24.38;100259.53;5081119;28;20050;-77
2021/12/30 00:25:50;;;;;;;2.15;1.95;;;19.60;37.00;;;23.31;24.59;100262.34;5116024;28;20436;-77
2021/12/30 00:28:22;;;;;;;2.22;2.03;;;19.70;37.10;;;23.29;24.55;100256.28;5097939;28;20056;-77
2021/12/30 00:30:52;;;;;;;2.00;1.85;;;19.70;37.00;;;23.33;24.46;100269.38;5097752;28;20040;-77
2021/12/30 00:33:19;;;;;;;2.40;1.92;;;19.70;37.10;;;23.36;24.38;100285.13;5098438;28;20463;-77
2021/12/30 00:35:45;;;;;;;1.95;1.75;;;19.60;37.00;;;23.34;24.46;100279.94;5097740;28;20039;-77
2021/12/30 00:38:11;;;;;;;1.80;1.70;;;19.60;37.00;;;23.32;24.51;100273.84;5098049;28;20043;-77
2021/12/30 00:40:40;;;;;;;2.03;1.83;;;19.60;37.00;;;23.30;24.46;100268.66;5093575;28;20097;-77
2021/12/30 00:43:06;;;;;;;2.60;2.22;;;19.60;37.00;;;23.29;24.56;100268.78;5097506;28;20043;-77
2021/12/30 00:45:35;;;;;;;2.33;1.70;;;19.60;37.00;;;23.31;24.42;100274.84;5097573;28;20995;-77
2021/12/30 00:48:03;;;;;;;2.45;1.88;;;19.60;37.00;;;23.29;24.29;100274.13;5081024;28;20043;-77
2021/12/30 00:50:30;;;;;;;2.03;1.80;;;19.60;37.00;;;23.30;24.47;100267.78;5097362;28;20517;-77
2021/12/30 00:52:58;;;;;;;2.10;1.90;;;19.60;37.10;;;23.30;24.68;100271.34;5080772;28;20043;-77
2021/12/30 00:55:26;;;;;;;1.63;1.52;;;19.60;37.10;;;23.29;24.54;100276.78;5097716;28;20130;-77
2021/12/30 00:57:52;;;;;;;1.98;1.77;;;19.60;37.10;;;23.30;24.60;100267.78;5080392;28;20079;-77
2021/12/30 01:00:20;;;;;;;1.90;1.80;;;19.60;37.10;;;23.29;24.48;100271.44;5096534;28;20066;-77
2021/12/30 01:02:47;;;;;;;1.92;1.65;;;19.60;37.10;;;23.29;24.47;100282.97;5080213;28;20043;-77
2021/12/30 01:05:14;;;;;;;2.10;1.90;;;19.60;37.10;;;23.28;24.50;100280.41;5080789;28;20074;-77
2021/12/30 01:07:40;;;;;;;1.95;1.83;;;19.60;37.10;;;23.29;24.63;100295.47;5095072;28;20048;-77
2021/12/30 01:10:10;;;;;;;1.90;1.80;;;19.60;37.10;;;23.28;24.71;100299.09;5097378;28;20056;-77
2021/12/30 01:12:36;;;;;;;1.95;1.75;;;19.60;37.10;;;23.27;24.57;100300.03;5079885;28;20055;-77
2021/12/30 01:15:08;;;;;;;1.92;1.83;;;19.60;37.10;;;23.26;24.54;100304.53;5115410;28;20398;-77
2021/12/30 01:17:52;;;;;;;1.98;1.77;;;19.60;37.10;;;23.27;24.48;100308.91;5115155;28;20047;-77
2021/12/30 01:20:20;;;;;;;2.00;1.80;;;19.50;37.10;;;23.23;24.57;100304.78;5114950;28;20467;-77
2021/12/30 01:22:47;;;;;;;2.30;1.98;;;19.50;37.10;;;23.25;24.65;100310.00;5096100;28;20053;-77
2021/12/30 01:25:14;;;;;;;2.10;1.90;;;19.50;37.20;;;23.23;24.50;100320.78;5078095;28;20050;-77
2021/12/30 01:27:40;;;;;;;2.30;2.10;;;19.50;37.10;;;23.24;24.29;100327.81;5096322;28;20056;-77
2021/12/30 01:30:12;;;;;;;2.00;1.83;;;19.50;37.10;;;23.26;24.58;100331.22;5095517;28;20048;-77
2021/12/30 01:32:39;;;;;;;1.73;1.63;;;19.50;37.20;;;23.22;24.48;100342.25;5079135;28;20438;-77
2021/12/30 01:35:08;;;;;;;1.75;1.63;;;19.50;37.20;;;23.22;24.49;100358.25;5095106;28;20052;-77
2021/12/30 01:37:34;;;;;;;1.90;1.70;;;19.60;37.20;;;23.25;24.71;100372.19;5097222;28;20058;-77
2021/12/30 01:40:00;;;;;;;1.88;1.67;;;19.60;37.20;;;23.22;24.71;100367.13;5079077;28;20055;-77
2021/12/30 01:42:26;;;;;;;1.70;1.60;;;19.60;37.20;;;23.23;24.44;100368.78;5095426;28;20212;-77
2021/12/30 01:44:52;;;;;;;2.05;1.88;;;19.50;37.20;;;23.24;24.51;100373.16;5096725;28;20531;-77
2021/12/30 01:47:17;;;;;;;1.77;1.67;;;19.50;37.20;;;23.22;24.51;100372.44;5079507;28;20043;-77
2021/12/30 01:49:43;;;;;;;1.50;1.40;;;19.50;37.20;;;23.19;24.49;100378.03;5114406;28;20083;-77
2021/12/30 01:52:09;;;;;;;1.73;1.45;;;19.50;37.20;;;23.23;24.52;100373.28;5079498;28;20048;-77
2021/12/30 01:54:35;;;;;;;2.60;2.03;;;19.50;37.20;;;23.22;24.47;100374.25;5063129;28;20498;-77
2021/12/30 01:57:05;;;;;;;2.13;1.92;;;19.50;37.20;;;23.20;24.62;100382.38;5096032;28;20052;-77
2021/12/30 01:59:31;;;;;;;1.70;1.60;;;19.50;37.20;;;23.18;24.56;100370.16;5062583;28;20047;-77
2021/12/30 02:01:57;;;;;;;1.92;1.77;;;19.50;37.20;;;23.19;24.59;100378.03;5078289;28;20480;-77
2021/12/30 02:04:25;;;;;;;1.70;1.60;;;19.50;37.20;;;23.20;24.38;100379.69;5080101;28;20046;-77
2021/12/30 02:06:53;;;;;;;2.03;1.80;;;19.50;37.20;;;23.23;24.73;100397.28;5096659;28;20052;-77
2021/12/30 02:09:20;;;;;;;1.80;1.60;;;19.50;37.20;;;23.18;24.61;100383.47;5079062;28;20485;-77
2021/12/30 02:11:47;;;;;;;1.65;1.55;;;19.50;37.20;;;23.15;24.61;100389.03;5078484;28;20070;-77
2021/12/30 02:14:13;;;;;;;2.25;1.77;;;19.50;37.30;;;23.20;24.58;100408.19;5079496;28;20097;-77
2021/12/30 02:16:39;;;;;;;1.60;1.50;;;19.50;37.20;;;23.16;24.69;100404.09;5060570;28;20434;-77
2021/12/30 02:19:05;;;;;;;1.63;1.52;;;19.50;37.30;;;23.19;24.82;100420.69;5114105;28;20055;-77
2021/12/30 02:21:31;;;;;;;2.22;1.98;;;19.50;37.30;;;23.19;24.55;100425.16;5096032;28;20130;-77
2021/12/30 02:23:58;;;;;;;1.77;1.67;;;19.50;37.30;;;23.19;24.63;100433.16;5096273;28;20126;-77
2021/12/30 02:26:24;;;;;;;2.38;2.00;;;19.50;37.30;;;23.15;24.67;100431.72;5096095;28;20502;-77
2021/12/30 02:28:50;;;;;;;2.17;1.98;;;19.50;37.30;;;23.16;24.58;100420.09;5095910;28;20039;-77
2021/12/30 02:31:20;;;;;;;2.05;1.85;;;19.50;37.30;;;23.15;24.67;100423.72;5062203;28;20134;-77
2021/12/30 02:33:47;;;;;;;1.33;1.20;;;19.50;37.30;;;23.19;24.50;100428.69;5079219;28;20482;-77
2021/12/30 02:36:16;;;;;;;2.10;1.80;;;19.40;37.30;;;23.16;24.72;100431.59;5096117;28;20282;-77
2021/12/30 02:38:44;;;;;;;2.00;1.90;;;19.40;37.30;;;23.15;24.54;100432.56;5095803;28;20077;-77
2021/12/30 02:41:17;;;;;;;1.80;1.70;;;19.50;37.30;;;23.14;24.66;100428.22;5078974;28;20598;-77
2021/12/30 02:43:47;;;;;;;1.80;1.70;;;19.50;37.30;;;23.17;24.56;100424.44;5096522;28;20047;-77
2021/12/30 02:46:14;;;;;;;2.30;1.90;;;19.50;37.30;;;23.16;24.55;100428.09;5096068;28;20043;-77
2021/12/30 02:48:41;;;;;;;2.10;1.90;;;19.40;37.30;;;23.13;24.53;100440.69;5095760;28;20043;-77
2021/12/30 02:51:11;;;;;;;2.08;1.90;;;19.50;37.30;;;23.15;24.77;100453.91;5113765;28;20044;-77
2021/12/30 02:53:37;;;;;;;1.83;1.73;;;19.40;37.30;;;23.13;24.55;100466.50;5095944;28;20376;-77
2021/12/30 02:56:05;;;;;;;1.70;1.60;;;19.40;37.30;;;23.14;24.68;100473.56;5095561;28;20039;-77
2021/12/30 02:58:31;;;;;;;1.77;1.67;;;19.40;37.30;;;23.14;24.60;100473.56;5095798;28;20134;-77
2021/12/30 03:01:06;;;;;;;1.50;1.40;;;19.50;37.30;;;23.10;24.61;100480.94;5078694;28;20047;-77
2021/12/30 03:03:32;;;;;;;1.80;1.60;;;19.50;37.30;;;23.13;24.54;100499.34;5113817;28;20046;-77
2021/12/30 03:06:01;;;;;;;2.15;1.95;;;19.50;37.30;;;23.12;24.66;100502.13;5095358;28;20093;-77
2021/12/30 03:08:28;;;;;;;1.60;1.50;;;19.40;37.30;;;23.14;24.68;100505.56;5094911;28;20055;-77
2021/12/30 03:10:54;;;;;;;1.50;1.40;;;19.40;37.30;;;23.10;24.74;100510.28;5061120;28;20541;-77
2021/12/30 03:13:29;;;;;;;2.15;1.95;;;19.40;37.30;;;23.12;24.73;100513.66;5095162;28;20132;-77
2021/12/30 03:16:00;;;;;;;1.88;1.75;;;19.50;37.30;;;23.11;24.77;100519.97;5096609;28;20062;-77
2021/12/30 03:18:26;;;;;;;2.47;2.25;;;19.50;37.30;;;23.12;24.57;100524.34;5078170;28;20060;-77
2021/12/30 03:20:52;;;;;;;1.70;1.60;;;19.50;37.30;;;23.15;24.62;100517.06;5095259;28;20046;-77
2021/12/30 03:23:18;;;;;;;1.77;1.67;;;19.50;37.30;;;23.15;24.88;100512.56;5076787;28;20076;-77
2021/12/30 03:25:44;;;;;;;1.55;1.45;;;19.50;37.30;;;23.13;24.75;100515.34;5095140;28;20045;-76
2021/12/30 03:28:10;;;;;;;1.90;1.80;;;19.50;37.30;;;23.10;24.74;100507.63;5093760;28;20052;-77
2021/12/30 03:30:36;;;;;;;2.25;2.05;;;19.50;37.30;;;23.15;24.81;100515.22;5113309;28;20096;-76
2021/12/30 03:33:01;;;;;;;1.80;1.70;;;19.50;37.20;;;23.16;24.71;100518.78;5095025;28;20054;-76
2021/12/30 03:35:27;;;;;;;2.10;1.65;;;19.50;37.20;;;23.16;24.80;100513.44;5113103;28;20051;-76
2021/12/30 03:37:53;;;;;;;1.88;1.63;;;19.50;37.20;;;23.16;24.62;100519.63;5095233;28;20131;-76
2021/12/30 03:40:22;;;;;;;1.70;1.60;;;19.50;37.10;;;23.17;24.67;100529.31;5112916;28;20043;-76
2021/12/30 03:42:47;;;;;;;1.60;1.50;;;19.60;37.20;;;23.19;24.70;100534.50;5094702;28;20044;-76
2021/12/30 03:45:14;;;;;;;1.40;1.30;;;19.60;37.10;;;23.18;24.68;100531.00;5093913;28;20040;-76
2021/12/30 03:47:44;;;;;;;1.80;1.63;;;19.60;37.10;;;23.23;24.54;100530.66;5076180;28;20075;-76
2021/12/30 03:50:23;;;;;;;1.70;1.60;;;19.60;37.10;;;23.21;24.69;100524.59;5076179;28;20411;-76
2021/12/30 03:53:00;;;;;;;1.77;1.67;;;19.70;37.10;;;23.22;24.59;100523.63;5095939;28;20556;-76
2021/12/30 03:55:29;;;;;;;2.00;1.80;;;19.70;37.00;;;23.27;24.66;100538.31;5078421;28;20083;-76
2021/12/30 03:57:56;;;;;;;1.98;1.70;;;19.70;37.00;;;23.27;24.55;100538.31;5092955;28;20047;-77
2021/12/30 04:00:26;;;;;;;1.80;1.70;;;19.70;37.00;;;23.26;24.74;100544.59;5094856;28;20040;-76
2021/12/30 04:02:52;;;;;;;1.67;1.58;;;19.70;36.90;;;23.30;24.73;100545.22;5094875;28;20399;-77
2021/12/30 04:05:19;;;;;;;1.70;1.60;;;19.70;36.90;;;23.29;24.66;100543.53;5093826;28;20048;-77
2021/12/30 04:07:45;;;;;;;1.75;1.65;;;19.80;37.00;;;23.30;24.57;100540.75;5061174;28;20051;-77
2021/12/30 04:10:16;;;;;;;2.03;1.80;;;19.80;36.90;;;23.35;24.77;100542.22;5078005;28;20052;-77
2021/12/30 04:12:44;;;;;;;2.15;1.95;;;19.80;36.90;;;23.35;24.43;100534.19;5094729;28;20495;-77
2021/12/30 04:15:10;;;;;;;2.33;1.77;;;19.80;36.90;;;23.34;24.70;100540.50;5077464;28;20044;-77
2021/12/30 04:17:36;;;;;;;1.75;1.65;;;19.80;36.80;;;23.42;24.60;100551.44;5076453;28;20072;-77
2021/12/30 04:20:04;;;;;;;2.15;1.80;;;19.90;36.90;;;23.41;24.62;100550.59;5112648;28;20437;-77
2021/12/30 04:22:30;;;;;;;1.98;1.88;;;19.90;36.80;;;23.43;24.62;100553.13;5092416;28;20407;-77
2021/12/30 04:24:58;;;;;;;1.50;1.40;;;19.90;36.80;;;23.44;24.37;100545.00;5093878;28;20105;-77
2021/12/30 04:27:24;;;;;;;1.70;1.60;;;19.90;36.80;;;23.46;24.67;100528.88;5093259;28;20063;-77
2021/12/30 04:29:49;;;;;;;1.63;1.52;;;19.90;36.80;;;23.48;24.68;100521.59;5094305;28;20130;-77
2021/12/30 04:32:15;;;;;;;1.63;1.52;;;19.90;37.30;;;23.50;24.47;100519.66;5077365;28;20077;-77
2021/12/30 04:34:41;;;;;;;1.70;1.60;;;20.00;36.80;;;23.51;24.72;100528.53;5112773;28;20055;-77
2021/12/30 04:37:07;;;;;;;1.77;1.67;;;20.00;36.80;;;23.51;24.63;100537.38;5094188;28;20044;-77
2021/12/30 04:39:33;;;;;;;1.50;1.40;;;19.90;36.70;;;23.54;24.43;100534.47;5093441;28;20047;-77
2021/12/30 04:41:59;;;;;;;1.88;1.67;;;20.00;36.70;;;23.52;24.46;100528.38;5094074;28;20048;-77
2021/12/30 04:44:25;;;;;;;1.60;1.50;;;20.00;36.70;;;23.52;24.44;100522.22;5092812;28;20051;-77
2021/12/30 04:46:51;;;;;;;1.75;1.65;;;20.00;36.70;;;23.53;24.44;100519.44;5094026;28;20036;-77
2021/12/30 04:49:17;;;;;;;1.45;1.35;;;20.00;36.70;;;23.57;24.54;100525.38;5093882;28;20044;-77
2021/12/30 04:51:43;;;;;;;1.73;1.63;;;20.00;36.70;;;23.57;24.37;100523.56;5093972;28;20043;-77
2021/12/30 04:54:08;;;;;;;1.40;1.30;;;20.00;36.70;;;23.59;24.54;100531.44;5077022;28;20138;-77
2021/12/30 04:56:34;;;;;;;2.00;1.75;;;20.00;36.60;;;23.60;24.43;100533.13;5096305;28;20052;-77
2021/12/30 04:59:00;;;;;;;1.60;1.38;;;20.00;36.60;;;23.61;24.46;100525.00;5079498;28;20065;-77
2021/12/30 05:01:26;;;;;;;1.73;1.52;;;20.00;36.60;;;23.57;24.44;100523.56;5097310;28;20057;-77
2021/12/30 05:03:51;;;;;;;1.50;1.40;;;20.10;36.70;;;23.60;24.31;100536.66;5080321;28;20392;-77
2021/12/30 05:06:17;;;;;;;1.48;1.38;;;20.00;36.60;;;23.62;24.47;100533.84;5097344;28;20459;-77
2021/12/30 05:08:43;;;;;;;1.70;1.60;;;20.00;36.60;;;23.63;24.36;100532.91;5097031;28;20130;-77
2021/12/30 05:11:09;;;;;;;1.85;1.60;;;20.00;36.60;;;23.61;24.51;100526.84;5097538;28;20483;-77
2021/12/30 05:13:35;;;;;;;1.52;1.42;;;20.00;36.60;;;23.63;24.38;100519.56;5080328;28;20513;-77
2021/12/30 05:16:01;;;;;;;1.52;1.38;;;20.00;36.60;;;23.63;24.45;100528.41;5097345;28;20040;-77
2021/12/30 05:18:32;;;;;;;1.75;1.65;;;20.00;36.70;;;23.62;24.23;100523.19;5097242;28;20368;-77
2021/12/30 05:21:02;;;;;;;1.50;1.40;;;20.10;36.70;;;23.64;24.35;100530.13;5080989;28;20395;-77
2021/12/30 05:23:29;;;;;;;1.90;1.70;;;20.00;36.60;;;23.62;24.35;100520.50;5096969;28;20101;-77
2021/12/30 05:25:55;;;;;;;1.58;1.30;;;20.10;36.70;;;23.64;24.20;100530.13;5096970;28;20418;-77
2021/12/30 05:28:21;;;;;;;1.67;1.58;;;20.00;36.60;;;23.63;24.42;100539.09;5079963;28;20055;-77
2021/12/30 05:30:47;;;;;;;1.80;1.70;;;20.00;36.60;;;23.64;24.40;100556.81;5078784;28;20515;-77
2021/12/30 05:33:14;;;;;;;1.58;1.48;;;20.00;36.60;;;23.65;24.29;100560.31;5078330;28;20044;-77
2021/12/30 05:35:39;;;;;;;1.52;1.42;;;20.00;36.60;;;23.66;24.41;100562.88;5096794;28;20047;-77
2021/12/30 05:38:06;;;;;;;1.92;1.67;;;20.10;36.70;;;23.67;24.21;100563.72;5096716;28;20491;-77
2021/12/30 05:40:33;;;;;;;1.63;1.50;;;20.00;36.60;;;23.64;24.25;100564.81;5061672;28;20400;-77
2021/12/30 05:42:59;;;;;;;1.60;1.50;;;20.00;36.60;;;23.64;24.45;100559.47;5079714;28;20047;-77
2021/12/30 05:45:27;;;;;;;1.55;1.45;;;20.00;36.70;;;23.65;24.36;100552.31;5096598;28;20050;-77
2021/12/30 05:47:53;;;;;;;1.73;1.60;;;20.00;36.70;;;23.63;24.40;100536.41;5096596;28;20448;-77
2021/12/30 05:50:26;;;;;;;1.70;1.60;;;20.00;36.70;;;23.61;24.18;100546.38;5096527;28;20081;-77
2021/12/30 05:52:54;;;;;;;1.63;1.52;;;20.00;36.70;;;23.66;24.26;100564.69;5096643;28;20130;-77
2021/12/30 05:55:21;;;;;;;1.50;1.40;;;20.00;36.70;;;23.63;24.34;100563.09;5079664;28;20052;-77
2021/12/30 05:57:49;;;;;;;1.42;1.33;;;20.00;36.70;;;23.64;24.42;100583.50;5078347;28;20515;-77
2021/12/30 06:00:21;;;;;;;1.45;1.35;;;20.00;36.70;;;23.65;24.44;100587.00;5094681;28;20055;-77
2021/12/30 06:02:47;;;;;;;1.92;1.77;;;20.00;36.70;;;23.65;24.49;100593.19;5079632;28;20476;-77
2021/12/30 06:05:13;;;;;;;1.88;1.73;;;20.10;36.70;;;23.64;24.37;100582.66;5096566;28;20055;-77
2021/12/30 06:07:40;;;;;;;1.98;1.63;;;20.00;36.70;;;23.66;24.29;100602.06;5094971;28;20052;-77
2021/12/30 06:10:07;;;;;;;1.48;1.38;;;20.00;36.70;;;23.65;24.46;100601.19;5095116;28;20052;-77
2021/12/30 06:12:33;;;;;;;1.75;1.60;;;20.00;36.70;;;23.66;24.57;100594.91;5062257;28;20052;-77
2021/12/30 06:14:59;;;;;;;1.50;1.40;;;20.10;36.70;;;23.62;24.42;100581.91;5096403;28;20048;-77
2021/12/30 06:17:25;;;;;;;1.65;1.55;;;20.00;36.70;;;23.62;24.35;100574.78;5094480;28;20063;-77
2021/12/30 06:19:51;;;;;;;1.52;1.42;;;20.00;36.70;;;23.65;24.31;100581.66;5114474;28;20036;-77
2021/12/30 06:22:16;;;;;;;1.52;1.42;;;20.00;36.70;;;23.64;24.49;100578.16;5079016;28;20043;-77
2021/12/30 06:24:43;;;;;;;1.60;1.50;;;20.00;36.70;;;23.66;24.36;100589.56;5095950;28;20081;-77
2021/12/30 06:27:09;;;;;;;1.40;1.30;;;20.00;36.70;;;23.67;24.32;100585.06;5096028;28;20048;-77
2021/12/30 06:29:35;;;;;;;1.58;1.48;;;20.00;36.70;;;23.65;24.41;100587.84;5095484;28;20126;-77
2021/12/30 06:32:02;;;;;;;1.40;1.30;;;20.10;36.70;;;23.65;24.39;100573.66;5094974;28;20047;-77
2021/12/30 06:34:27;;;;;;;1.55;1.40;;;20.00;36.70;;;23.67;24.45;100579.72;5077566;28;20048;-77
2021/12/30 06:36:53;;;;;;;1.75;1.63;;;20.10;36.70;;;23.67;24.13;100596.63;5095879;28;20060;-77
2021/12/30 06:39:19;;;;;;;1.60;1.50;;;20.10;36.70;;;23.68;24.34;100600.13;5078731;28;20105;-77
2021/12/30 06:41:45;;;;;;;1.52;1.42;;;20.10;36.70;;;23.65;24.39;100589.69;5096028;28;20075;-77
2021/12/30 06:44:10;;;;;;;1.50;1.40;;;20.10;36.70;;;23.70;24.33;100594.66;5114646;28;20087;-77
2021/12/30 06:46:37;;;;;;;1.60;1.50;;;20.10;36.70;;;23.66;24.35;100602.91;5114062;28;20040;-77
2021/12/30 06:49:09;;;;;;;1.40;1.30;;;20.10;36.70;;;23.67;24.34;100623.31;5078603;28;20059;-77
2021/12/30 06:51:35;;;;;;;1.17;1.08;;;20.10;36.70;;;23.71;24.44;100633.75;5113873;28;20060;-79
2021/12/30 06:54:05;;;;;;;1.65;1.48;;;20.10;36.70;;;23.70;24.20;100648.91;5078641;28;20399;-77
2021/12/30 06:56:31;;;;;;;1.67;1.58;;;20.10;36.70;;;23.71;24.41;100623.91;5078587;28;20086;-77
2021/12/30 06:58:57;;;;;;;1.38;1.23;;;20.10;36.70;;;23.67;24.56;100614.44;5078657;28;20047;-77
2021/12/30 07:01:23;;;;;;;1.20;1.10;;;20.10;36.70;;;23.68;24.34;100605.47;5095619;28;20060;-77
2021/12/30 07:03:49;;;;;;;1.60;1.50;;;20.10;36.70;;;23.66;24.28;100592.22;5095407;28;20456;-77
2021/12/30 07:06:14;;;;;;;2.22;1.70;;;20.10;36.70;;;23.70;24.25;100590.16;5095375;28;20559;-78
2021/12/30 07:08:41;;;;;;;1.48;1.38;;;20.10;36.70;;;23.68;24.30;100595.63;5078394;28;20483;-77
2021/12/30 07:11:07;;;;;;;1.65;1.55;;;20.10;36.70;;;23.70;24.38;100589.31;5094612;28;20063;-77
2021/12/30 07:13:33;;;;;;;1.60;1.50;;;20.10;36.70;;;23.70;24.28;100598.19;5078387;28;20075;-77
2021/12/30 07:15:59;;;;;;;2.17;1.60;;;20.10;36.70;;;23.71;24.32;100607.91;5092920;28;20122;-77
2021/12/30 07:18:25;;;;;;;1.38;1.27;;;20.10;36.70;;;23.72;24.43;100612.25;5094155;28;20055;-77
2021/12/30 07:20:51;;;;;;;1.73;1.63;;;20.10;36.60;;;23.73;24.47;100616.63;5094381;28;20130;-77
2021/12/30 07:23:16;;;;;;;1.38;1.27;;;20.10;36.70;;;23.67;24.36;100614.44;5113457;28;20053;-77
2021/12/30 07:25:42;;;;;;;1.50;1.40;;;20.10;36.60;;;23.72;24.33;100622.94;5078402;28;20153;-77
2021/12/30 07:28:08;;;;;;;1.38;1.27;;;20.10;36.70;;;23.72;24.36;100627.44;5077858;28;20092;-77
2021/12/30 07:30:34;;;;;;;1.52;1.42;;;20.10;36.70;;;23.73;24.33;100629.13;5078157;28;20479;-77
2021/12/30 07:33:02;;;;;;;2.25;1.70;;;20.10;36.60;;;23.74;24.31;100633.50;5094841;28;20044;-77
2021/12/30 07:35:28;;;;;;;1.65;1.52;;;20.20;36.70;;;23.73;24.33;100639.81;5095276;28;20530;-77
2021/12/30 07:37:53;;;;;;;1.25;1.15;;;20.10;36.60;;;23.74;24.28;100631.69;5077076;28;20040;-77
2021/12/30 07:40:20;;;;;;;1.30;1.20;;;20.10;36.60;;;23.74;24.15;100621.00;5076160;28;20135;-78
2021/12/30 07:42:46;;;;;;;2.00;1.50;;;20.20;36.70;;;23.71;24.44;100626.59;5095158;28;20044;-77
2021/12/30 07:45:13;;;;;;;2.03;1.48;;;20.10;36.60;;;23.76;24.28;100632.41;5077876;28;20051;-77
2021/12/30 07:47:40;;;;;;;1.52;1.42;;;20.10;37.20;;;23.75;24.40;100641.38;5112860;28;20376;-78
2021/12/30 07:50:07;;;;;;;1.38;1.27;;;20.10;36.60;;;23.75;24.35;100632.53;5094735;28;20056;-78
2021/12/30 07:52:34;;;;;;;1.50;1.40;;;20.10;36.60;;;23.77;24.41;100635.91;5077152;28;20058;-78
2021/12/30 07:55:00;;;;;;;1.27;1.15;;;20.10;36.60;;;23.77;24.45;100635.91;5078117;28;20150;-77
2021/12/30 07:57:26;;;;;;;1.50;1.40;;;20.10;36.60;;;23.74;24.44;100637.03;5075893;28;20131;-78
2021/12/30 07:59:53;;;;;;;1.30;1.20;;;20.20;36.70;;;23.78;24.30;100640.31;5112712;28;20048;-78
2021/12/30 08:02:19;;;;;;;1.38;1.27;;;20.10;36.60;;;23.77;24.33;100642.13;5093933;28;20048;-78
2021/12/30 08:04:45;;;;;;;1.30;1.20;;;20.10;36.60;;;23.77;24.31;100646.59;5077517;28;20496;-78
2021/12/30 08:07:11;;;;;;;1.63;1.52;;;20.20;36.70;;;23.74;24.45;100645.03;5077530;28;20079;-77
2021/12/30 08:09:37;;;;;;;1.40;1.30;;;20.10;36.60;;;23.74;24.25;100644.16;5094587;28;20048;-78
2021/12/30 08:12:04;;;;;;;1.58;1.45;;;20.10;36.60;;;23.74;24.21;100638.81;5077693;28;20047;-78
2021/12/30 08:14:30;;;;;;;1.30;1.20;;;20.20;36.70;;;23.77;24.46;100644.81;5094678;28;20044;-78
2021/12/30 08:16:56;;;;;;;1.98;1.40;;;20.20;36.60;;;23.78;24.37;100645.66;5077641;28;20054;-78
2021/12/30 08:19:22;;;;;;;1.63;1.40;;;20.20;36.60;;;23.79;24.18;100644.66;5093596;28;20449;-78
2021/12/30 08:21:47;;;;;;;1.40;1.30;;;20.20;36.60;;;23.77;24.46;100635.91;5112690;28;20053;-78
2021/12/30 08:24:13;;;;;;;1.50;1.40;;;20.20;36.60;;;23.80;24.21;100643.69;5112704;28;20059;-77
2021/12/30 08:26:40;;;;;;;1.20;1.10;;;20.20;36.60;;;23.80;24.27;100643.69;5077185;28;20043;-78
2021/12/30 08:29:07;;;;;;;1.50;1.35;;;20.20;36.60;;;23.81;24.39;100648.09;5093350;28;20047;-78
2021/12/30 08:31:37;;;;;;;1.50;1.40;;;20.20;36.60;;;23.76;24.46;100648.44;5079900;28;20054;-77
2021/12/30 08:34:04;;;;;;;1.48;1.20;;;20.20;36.60;;;23.80;24.28;100654.38;5097831;28;20392;-78
2021/12/30 08:36:30;;;;;;;1.17;1.08;;;20.20;36.60;;;23.80;24.30;100663.22;5080788;28;20040;-77
2021/12/30 08:38:56;;;;;;;1.60;1.50;;;20.20;36.60;;;23.78;24.35;100662.50;5116031;28;20475;-77
2021/12/30 08:41:22;;;;;;;1.48;1.38;;;20.20;36.60;;;23.80;24.10;100673.91;5097561;28;20047;-77
2021/12/30 08:43:48;;;;;;;1.50;1.40;;;20.20;36.60;;;23.82;24.40;100668.47;5097604;28;20089;-77
2021/12/30 08:46:14;;;;;;;1.58;1.48;;;20.20;36.60;;;23.81;24.27;100658.75;5097930;28;20039;-77
2021/12/30 08:48:40;;;;;;;1.17;1.08;;;20.20;36.60;;;23.80;24.25;100646.38;5097517;28;20039;-78
2021/12/30 08:51:06;;;;;;;1.10;1.10;;;20.20;36.60;;;23.81;24.28;100651.59;5080393;28;20395;-77
2021/12/30 08:53:32;;;;;;;1.40;1.30;;;20.20;36.60;;;23.84;24.26;100658.56;5098098;28;20050;-77
2021/12/30 08:55:58;;;;;;;1.40;1.30;;;20.20;36.60;;;23.84;24.27;100659.41;5080383;28;20092;-77
2021/12/30 08:58:24;;;;;;;1.55;1.45;;;20.20;36.60;;;23.84;24.18;100661.22;5079601;28;20048;-77
2021/12/30 09:00:50;;;;;;;1.75;1.40;;;20.20;36.60;;;23.84;24.37;100663.91;5097351;28;20051;-77
2021/12/30 09:03:17;;;;;;;1.35;1.25;;;20.20;36.60;;;23.83;24.42;100663.03;5095706;28;20044;-77
2021/12/30 09:05:43;;;;;;;1.42;1.33;;;20.30;36.60;;;23.83;24.20;100654.19;5097293;28;20391;-78
2021/12/30 09:08:09;;;;;;;1.30;1.20;;;20.20;36.60;;;23.85;24.25;100660.25;5097125;28;20469;-78
2021/12/30 09:10:40;;;;;;;1.30;1.20;;;20.30;36.60;;;23.87;24.24;100663.63;5097349;28;20457;-77
2021/12/30 09:13:08;;;;;;;1.33;1.23;;;20.30;36.60;;;23.86;24.31;100656.63;5098115;28;20548;-77
2021/12/30 09:15:34;;;;;;;1.30;1.20;;;20.20;36.60;;;23.86;24.21;100659.28;5097337;28;20050;-77
2021/12/30 09:18:01;;;;;;;1.27;1.17;;;20.20;36.60;;;23.83;24.35;100652.34;5096647;28;20035;-77
2021/12/30 09:20:27;;;;;;;1.30;1.20;;;20.20;36.60;;;23.83;24.36;100647.00;5080206;28;20043;-77
2021/12/30 09:22:55;;;;;;;1.30;1.20;;;20.30;36.60;;;23.86;24.44;100648.59;5115873;28;20441;-77
2021/12/30 09:25:24;;;;;;;1.30;1.20;;;20.20;36.50;;;23.86;24.29;100645.94;5079959;28;20040;-77
2021/12/30 09:27:54;;;;;;;1.45;1.35;;;20.20;36.60;;;23.84;24.25;100648.72;5095194;28;20077;-77
2021/12/30 09:30:25;;;;;;;1.30;1.20;;;20.30;36.60;;;23.85;24.37;100647.72;5078196;28;20097;-77
2021/12/30 09:32:56;;;;;;;1.40;1.30;;;20.30;36.60;;;23.86;24.24;100646.78;5080002;28;20054;-77
2021/12/30 09:35:23;;;;;;;1.33;1.23;;;20.30;36.60;;;23.84;24.17;100637.19;5095230;28;20052;-78
2021/12/30 09:37:49;;;;;;;1.40;1.30;;;20.30;37.10;;;23.88;24.34;100648.50;5096772;28;20142;-77
2021/12/30 09:40:17;;;;;;;1.25;1.13;;;20.30;36.60;;;23.86;24.09;100636.09;5096596;28;20055;-77
2021/12/30 09:42:47;;;;;;;0.98;0.98;;;20.30;36.60;;;23.83;24.06;100633.66;5094559;28;20048;-78
2021/12/30 09:45:14;;;;;;;1.48;1.38;;;20.30;36.60;;;23.90;24.25;100642.03;5096905;28;20043;-77
2021/12/30 09:47:51;;;;;;;1.42;1.33;;;20.30;36.50;;;23.84;24.23;100627.38;5094921;28;20044;-77
2021/12/30 09:50:28;;;;;;;1.55;1.40;;;20.30;36.60;;;23.87;24.37;100626.25;5078269;28;20076;-77
2021/12/30 09:52:56;;;;;;;1.50;1.40;;;20.30;36.50;;;23.88;24.23;100630.63;5077896;28;20133;-78
2021/12/30 09:55:25;;;;;;;1.48;1.38;;;20.30;36.50;;;23.86;24.31;100620.06;5079600;28;20047;-78
2021/12/30 09:57:55;;;;;;;1.20;1.10;;;20.30;36.50;;;23.88;24.21;100621.78;5095978;28;20047;-78
2021/12/30 10:00:23;;;;;;;1.30;1.20;;;20.30;36.50;;;23.86;24.24;100620.06;5096577;28;20043;-78
2021/12/30 10:02:49;;;;;;;1.20;1.10;;;20.30;36.50;;;23.92;24.23;100629.41;5079430;28;20048;-78
2021/12/30 10:05:20;;;;;;;1.48;1.20;;;20.30;36.50;;;23.91;24.43;100626.91;5114746;28;20047;-78
2021/12/30 10:07:47;;;;;;;1.45;1.35;;;20.30;36.60;;;23.88;24.32;100617.28;5095871;28;20378;-78
2021/12/30 10:10:32;;;;;;;1.40;1.30;;;20.30;36.60;;;23.87;24.36;100626.25;5079965;28;20104;-78
2021/12/30 10:13:00;;;;;;;1.30;1.20;;;20.30;36.60;;;23.92;24.42;100628.56;5096935;28;20040;-78